»·PEaware :: N106MR KSEA-CYVR

N106MR :: KSEA-CYVR

FLIGHT INFORMATION

Flight Status: Arrived
Operator: Privately registered:
United States
More flights under this callsign
Pilot: Michael R. (16974)
Aircraft: MITSUBISHI MU-2 MARQUISE
(MU2)
More flights by this aircraft type
Origin: KSEA Seattle-Tacoma Intl
United States
Destination: CYVR Vancouver Intl
Canada
More flights between these airports :: More routes between these airports
Route: +ATOME2 PAE GRIZZ5
File this flight plan on PilotEdge
Remarks:
Altitude:
(Current/Filed)
16,000ft
Speed:
(Current/Filed)
270kts
Departed: 02-Jan-18 11:48 AM
Arrived: 02-Jan-18 12:25 PM
Distance/Time
Traveled:
110nm/0:37
Distance/Time
To Go:
Arrived

Flight Plot

Page will automatically refresh every two minutes.

Flight plan parsing failed; only flown route is shown


Map Options




Map Legend


Flown Route
Filed Route
Departure Airport
Arrival Airport
Navaid (VOR, NDB)
Fix

Horizontal Profiles

Position Reports

Time Latitude Longitude Heading Altitude Ground
Speed
02-Jan-18 11:39 47.439174 -122.315216 55 348ft 0kts
02-Jan-18 11:40 47.439174 -122.315216 55 348ft 0kts
02-Jan-18 11:41 47.439174 -122.315216 55 348ft 0kts
02-Jan-18 11:42 47.439174 -122.315216 55 348ft 0kts
02-Jan-18 11:43 47.439174 -122.315216 55 348ft 0kts
02-Jan-18 11:44 47.439174 -122.315216 55 348ft 0kts
02-Jan-18 11:45 47.439174 -122.315216 55 348ft 0kts
02-Jan-18 11:46 47.439174 -122.315216 55 348ft 0kts
02-Jan-18 11:47 47.439174 -122.315216 55 348ft 0kts
02-Jan-18 11:48 47.439174 -122.315216 55 348ft 0kts
02-Jan-18 11:49 47.440254 -122.315131 331 354ft 14kts
02-Jan-18 11:50 47.440655 -122.316757 272 349ft 0kts
02-Jan-18 11:51 47.440655 -122.316757 272 349ft 0kts
02-Jan-18 11:52 47.440655 -122.316757 272 349ft 0kts
02-Jan-18 11:53 47.441464 -122.318061 359 347ft 0kts
02-Jan-18 11:54 47.449476 -122.318031 2 399ft 128kts
02-Jan-18 11:55 47.491643 -122.317561 1 2414ft 167kts
02-Jan-18 11:56 47.538358 -122.312257 2 4810ft 181kts
02-Jan-18 11:57 47.583931 -122.339456 323 7294ft 189kts
02-Jan-18 11:58 47.618873 -122.395394 294 9826ft 192kts
02-Jan-18 11:59 47.650594 -122.455915 350 12374ft 205kts
02-Jan-18 12:00 47.707468 -122.460335 356 14899ft 209kts
02-Jan-18 12:01 47.768946 -122.448735 32 16039ft 274kts
02-Jan-18 12:02 47.837016 -122.385360 31 16007ft 299kts
02-Jan-18 12:03 47.898852 -122.305957 42 16007ft 300kts
02-Jan-18 12:04 47.977114 -122.294859 347 16008ft 296kts
02-Jan-18 12:05 48.057726 -122.317645 347 16010ft 297kts
02-Jan-18 12:06 48.134981 -122.340040 347 16022ft 300kts
02-Jan-18 12:07 48.215732 -122.363529 347 16022ft 301kts
02-Jan-18 12:08 48.295968 -122.386951 347 16022ft 302kts
02-Jan-18 12:09 48.377826 -122.410913 347 16023ft 302kts
02-Jan-18 12:10 48.460327 -122.435149 347 16006ft 303kts
02-Jan-18 12:11 48.542526 -122.459375 347 16005ft 303kts
02-Jan-18 12:12 48.624885 -122.483691 347 16005ft 303kts
02-Jan-18 12:13 48.706574 -122.512277 322 15994ft 297kts
02-Jan-18 12:14 48.757457 -122.607152 302 16005ft 291kts
02-Jan-18 12:15 48.804018 -122.706291 301 16007ft 293kts
02-Jan-18 12:16 48.851453 -122.807973 301 16017ft 297kts
02-Jan-18 12:17 48.899017 -122.910182 301 16054ft 297kts
02-Jan-18 12:18 48.946604 -123.013052 301 16033ft 299kts
02-Jan-18 12:19 49.006955 -123.089042 0 14240ft 295kts
02-Jan-18 12:20 49.085962 -123.075899 6 12368ft 281kts
02-Jan-18 12:21 49.144507 -123.029174 84 10513ft 266kts
02-Jan-18 12:22 49.133001 -122.922215 105 8701ft 254kts
02-Jan-18 12:23 49.116776 -122.819360 105 6944ft 246kts
02-Jan-18 12:24 49.148385 -122.753362 341 5117ft 252kts
02-Jan-18 12:25 49.171787 -122.842587 260 3412ft 239kts
02-Jan-18 12:26 49.164447 -122.940801 264 2033ft 216kts
02-Jan-18 12:27 49.168592 -123.017223 280 1627ft 152kts
02-Jan-18 12:28 49.175108 -123.075527 279 902ft 121kts
02-Jan-18 12:29 49.180679 -123.123545 276 346ft 110kts
02-Jan-18 12:30 49.186692 -123.177692 280 10ft 114kts
02-Jan-18 12:31 49.185663 -123.186286 106 13ft 18kts
02-Jan-18 12:32 49.184704 -123.177921 100 10ft 21kts
02-Jan-18 12:33 49.183708 -123.177202 70 10ft 12kts
02-Jan-18 12:34 49.183751 -123.176932 74 10ft 0kts
02-Jan-18 12:35 49.183751 -123.176934 74 10ft 0kts
02-Jan-18 12:36 49.183751 -123.176934 74 10ft 0kts
02-Jan-18 12:37 49.183751 -123.176934 74 10ft 0kts
02-Jan-18 12:38 49.183751 -123.176934 74 10ft 0kts
02-Jan-18 12:39 49.183751 -123.176934 74 10ft 0kts
02-Jan-18 12:40 49.183751 -123.176934 74 10ft 0kts
02-Jan-18 12:41 49.183751 -123.176934 74 10ft 0kts
02-Jan-18 12:42 49.183751 -123.176934 74 10ft 0kts
02-Jan-18 12:43 49.183751 -123.176934 74 10ft 0kts
02-Jan-18 12:44 49.183751 -123.176934 74 10ft 0kts
02-Jan-18 12:45 49.183751 -123.176934 74 10ft 0kts

Navigation Log

Ident Type
Flight plan parsing failed, navigation log unavailable